sensor_id;sensor_type;location;lat;lon;timestamp;P1;durP1;ratioP1;P2;durP2;ratioP2
5549;SDS011;2798;42.716;23.256;2023-06-05T00:00:30;7.80;;;6.97;;
5549;SDS011;2798;42.716;23.256;2023-06-05T00:02:55;12.47;;;6.67;;
5549;SDS011;2798;42.716;23.256;2023-06-05T00:05:21;14.30;;;7.43;;
5549;SDS011;2798;42.716;23.256;2023-06-05T00:07:46;8.73;;;7.53;;
5549;SDS011;2798;42.716;23.256;2023-06-05T00:10:11;9.63;;;7.93;;
5549;SDS011;2798;42.716;23.256;2023-06-05T00:12:38;11.70;;;7.73;;
5549;SDS011;2798;42.716;23.256;2023-06-05T00:15:04;12.10;;;8.40;;
5549;SDS011;2798;42.716;23.256;2023-06-05T00:17:30;15.57;;;8.23;;
5549;SDS011;2798;42.716;23.256;2023-06-05T00:19:55;13.87;;;7.87;;
5549;SDS011;2798;42.716;23.256;2023-06-05T00:22:23;9.47;;;8.33;;
5549;SDS011;2798;42.716;23.256;2023-06-05T00:24:50;11.00;;;8.80;;
5549;SDS011;2798;42.716;23.256;2023-06-05T00:27:16;9.87;;;8.13;;
5549;SDS011;2798;42.716;23.256;2023-06-05T00:29:41;10.87;;;7.93;;
5549;SDS011;2798;42.716;23.256;2023-06-05T00:32:06;8.00;;;6.20;;
5549;SDS011;2798;42.716;23.256;2023-06-05T00:34:32;10.13;;;7.73;;
5549;SDS011;2798;42.716;23.256;2023-06-05T00:36:57;10.73;;;7.27;;
5549;SDS011;2798;42.716;23.256;2023-06-05T00:39:23;9.50;;;7.70;;
5549;SDS011;2798;42.716;23.256;2023-06-05T00:41:48;12.17;;;7.47;;
5549;SDS011;2798;42.716;23.256;2023-06-05T00:44:14;12.33;;;8.07;;
5549;SDS011;2798;42.716;23.256;2023-06-05T00:46:39;14.20;;;8.87;;
5549;SDS011;2798;42.716;23.256;2023-06-05T00:49:06;14.53;;;9.10;;
5549;SDS011;2798;42.716;23.256;2023-06-05T00:51:33;10.40;;;8.80;;
5549;SDS011;2798;42.716;23.256;2023-06-05T00:53:58;12.17;;;8.83;;
5549;SDS011;2798;42.716;23.256;2023-06-05T00:56:25;14.87;;;8.47;;
5549;SDS011;2798;42.716;23.256;2023-06-05T00:58:52;9.33;;;7.10;;
5549;SDS011;2798;42.716;23.256;2023-06-05T01:01:18;11.00;;;8.43;;
5549;SDS011;2798;42.716;23.256;2023-06-05T01:03:45;11.50;;;8.80;;
5549;SDS011;2798;42.716;23.256;2023-06-05T01:06:12;9.60;;;8.30;;
5549;SDS011;2798;42.716;23.256;2023-06-05T01:08:38;14.23;;;9.30;;
5549;SDS011;2798;42.716;23.256;2023-06-05T01:13:40;13.57;;;8.77;;
5549;SDS011;2798;42.716;23.256;2023-06-05T01:16:12;14.20;;;9.70;;
5549;SDS011;2798;42.716;23.256;2023-06-05T01:18:40;10.93;;;8.47;;
5549;SDS011;2798;42.716;23.256;2023-06-05T01:21:10;20.50;;;8.67;;
5549;SDS011;2798;42.716;23.256;2023-06-05T01:23:38;10.37;;;8.50;;
5549;SDS011;2798;42.716;23.256;2023-06-05T01:26:09;11.20;;;9.03;;
5549;SDS011;2798;42.716;23.256;2023-06-05T01:28:40;12.30;;;10.00;;
5549;SDS011;2798;42.716;23.256;2023-06-05T01:31:10;10.80;;;8.60;;
5549;SDS011;2798;42.716;23.256;2023-06-05T01:33:46;8.90;;;8.00;;
5549;SDS011;2798;42.716;23.256;2023-06-05T01:36:15;11.53;;;8.67;;
5549;SDS011;2798;42.716;23.256;2023-06-05T01:38:41;14.37;;;9.00;;
5549;SDS011;2798;42.716;23.256;2023-06-05T01:41:09;9.83;;;7.53;;
5549;SDS011;2798;42.716;23.256;2023-06-05T01:43:35;11.00;;;8.00;;
5549;SDS011;2798;42.716;23.256;2023-06-05T01:46:01;12.33;;;8.00;;
5549;SDS011;2798;42.716;23.256;2023-06-05T01:48:27;12.30;;;8.73;;
5549;SDS011;2798;42.716;23.256;2023-06-05T01:50:55;13.87;;;8.13;;
5549;SDS011;2798;42.716;23.256;2023-06-05T01:53:21;10.07;;;8.40;;
5549;SDS011;2798;42.716;23.256;2023-06-05T01:55:46;14.67;;;8.63;;
5549;SDS011;2798;42.716;23.256;2023-06-05T01:58:13;15.57;;;8.33;;
5549;SDS011;2798;42.716;23.256;2023-06-05T02:00:39;11.77;;;7.60;;
5549;SDS011;2798;42.716;23.256;2023-06-05T02:03:04;13.40;;;7.67;;
5549;SDS011;2798;42.716;23.256;2023-06-05T02:05:30;9.67;;;7.73;;
5549;SDS011;2798;42.716;23.256;2023-06-05T02:07:58;12.63;;;8.10;;
5549;SDS011;2798;42.716;23.256;2023-06-05T02:10:23;18.33;;;10.10;;
5549;SDS011;2798;42.716;23.256;2023-06-05T02:12:49;13.00;;;8.50;;
5549;SDS011;2798;42.716;23.256;2023-06-05T02:15:15;11.77;;;9.57;;
5549;SDS011;2798;42.716;23.256;2023-06-05T02:17:44;10.33;;;9.10;;
5549;SDS011;2798;42.716;23.256;2023-06-05T02:20:15;11.40;;;9.43;;
5549;SDS011;2798;42.716;23.256;2023-06-05T02:22:41;12.00;;;9.60;;
5549;SDS011;2798;42.716;23.256;2023-06-05T02:25:07;10.73;;;8.53;;
5549;SDS011;2798;42.716;23.256;2023-06-05T02:27:33;14.97;;;9.80;;
5549;SDS011;2798;42.716;23.256;2023-06-05T02:29:59;13.83;;;9.90;;
5549;SDS011;2798;42.716;23.256;2023-06-05T02:32:25;16.20;;;8.97;;
5549;SDS011;2798;42.716;23.256;2023-06-05T02:34:54;17.30;;;9.27;;
5549;SDS011;2798;42.716;23.256;2023-06-05T02:37:22;11.93;;;8.73;;
5549;SDS011;2798;42.716;23.256;2023-06-05T02:39:51;15.10;;;9.87;;
5549;SDS011;2798;42.716;23.256;2023-06-05T02:42:16;17.00;;;8.80;;
5549;SDS011;2798;42.716;23.256;2023-06-05T02:44:43;14.63;;;8.90;;
5549;SDS011;2798;42.716;23.256;2023-06-05T02:47:09;13.77;;;9.53;;
5549;SDS011;2798;42.716;23.256;2023-06-05T02:49:35;12.10;;;9.53;;
5549;SDS011;2798;42.716;23.256;2023-06-05T02:52:02;14.93;;;8.23;;
5549;SDS011;2798;42.716;23.256;2023-06-05T02:54:28;17.03;;;9.63;;
5549;SDS011;2798;42.716;23.256;2023-06-05T02:56:53;13.93;;;9.20;;
5549;SDS011;2798;42.716;23.256;2023-06-05T02:59:21;15.67;;;9.83;;
5549;SDS011;2798;42.716;23.256;2023-06-05T03:01:49;12.80;;;8.23;;
5549;SDS011;2798;42.716;23.256;2023-06-05T03:04:15;16.23;;;9.97;;
5549;SDS011;2798;42.716;23.256;2023-06-05T03:06:46;9.47;;;8.23;;
5549;SDS011;2798;42.716;23.256;2023-06-05T03:09:13;15.20;;;9.00;;
5549;SDS011;2798;42.716;23.256;2023-06-05T03:11:38;13.83;;;8.83;;
5549;SDS011;2798;42.716;23.256;2023-06-05T03:14:03;14.43;;;9.60;;
5549;SDS011;2798;42.716;23.256;2023-06-05T03:16:30;12.07;;;10.10;;
5549;SDS011;2798;42.716;23.256;2023-06-05T03:19:02;11.57;;;8.47;;
5549;SDS011;2798;42.716;23.256;2023-06-05T03:21:28;14.40;;;9.07;;
5549;SDS011;2798;42.716;23.256;2023-06-05T03:23:53;13.07;;;9.63;;
5549;SDS011;2798;42.716;23.256;2023-06-05T03:26:19;10.50;;;9.00;;
5549;SDS011;2798;42.716;23.256;2023-06-05T03:28:44;13.90;;;9.30;;
5549;SDS011;2798;42.716;23.256;2023-06-05T03:31:09;15.73;;;8.83;;
5549;SDS011;2798;42.716;23.256;2023-06-05T03:33:35;14.20;;;9.20;;
5549;SDS011;2798;42.716;23.256;2023-06-05T03:36:00;17.20;;;9.87;;
5549;SDS011;2798;42.716;23.256;2023-06-05T03:38:27;14.83;;;10.03;;
5549;SDS011;2798;42.716;23.256;2023-06-05T03:40:52;14.00;;;9.70;;
5549;SDS011;2798;42.716;23.256;2023-06-05T03:43:17;15.03;;;10.13;;
5549;SDS011;2798;42.716;23.256;2023-06-05T03:45:44;11.67;;;10.47;;
5549;SDS011;2798;42.716;23.256;2023-06-05T03:48:10;13.03;;;9.87;;
5549;SDS011;2798;42.716;23.256;2023-06-05T03:50:35;12.53;;;9.30;;
5549;SDS011;2798;42.716;23.256;2023-06-05T03:53:03;13.33;;;9.10;;
5549;SDS011;2798;42.716;23.256;2023-06-05T03:55:32;13.40;;;8.93;;
5549;SDS011;2798;42.716;23.256;2023-06-05T03:58:11;11.10;;;8.60;;
5549;SDS011;2798;42.716;23.256;2023-06-05T04:00:42;14.97;;;9.47;;
5549;SDS011;2798;42.716;23.256;2023-06-05T04:03:10;15.43;;;8.80;;
5549;SDS011;2798;42.716;23.256;2023-06-05T04:05:37;12.27;;;8.67;;
5549;SDS011;2798;42.716;23.256;2023-06-05T04:08:06;14.47;;;9.20;;
5549;SDS011;2798;42.716;23.256;2023-06-05T04:10:33;14.07;;;9.37;;
5549;SDS011;2798;42.716;23.256;2023-06-05T04:12:58;11.17;;;9.10;;
5549;SDS011;2798;42.716;23.256;2023-06-05T04:15:24;12.57;;;9.93;;
5549;SDS011;2798;42.716;23.256;2023-06-05T04:17:50;16.27;;;9.20;;
5549;SDS011;2798;42.716;23.256;2023-06-05T04:20:15;11.63;;;9.23;;
5549;SDS011;2798;42.716;23.256;2023-06-05T04:22:44;20.43;;;9.60;;
5549;SDS011;2798;42.716;23.256;2023-06-05T04:25:11;12.80;;;9.70;;
5549;SDS011;2798;42.716;23.256;2023-06-05T04:27:46;13.57;;;10.80;;
5549;SDS011;2798;42.716;23.256;2023-06-05T04:30:14;12.50;;;10.00;;
5549;SDS011;2798;42.716;23.256;2023-06-05T04:32:40;17.90;;;10.73;;
5549;SDS011;2798;42.716;23.256;2023-06-05T04:35:06;12.53;;;10.50;;
5549;SDS011;2798;42.716;23.256;2023-06-05T04:37:34;14.93;;;9.77;;
5549;SDS011;2798;42.716;23.256;2023-06-05T04:40:03;13.20;;;10.57;;
5549;SDS011;2798;42.716;23.256;2023-06-05T04:42:35;15.60;;;11.00;;
5549;SDS011;2798;42.716;23.256;2023-06-05T04:45:02;12.27;;;10.17;;
5549;SDS011;2798;42.716;23.256;2023-06-05T04:47:30;12.70;;;11.17;;
5549;SDS011;2798;42.716;23.256;2023-06-05T04:49:59;14.97;;;11.40;;
5549;SDS011;2798;42.716;23.256;2023-06-05T04:52:26;16.17;;;11.50;;
5549;SDS011;2798;42.716;23.256;2023-06-05T04:54:54;15.03;;;11.83;;
5549;SDS011;2798;42.716;23.256;2023-06-05T04:57:20;18.53;;;13.17;;
5549;SDS011;2798;42.716;23.256;2023-06-05T04:59:45;18.50;;;13.33;;
5549;SDS011;2798;42.716;23.256;2023-06-05T05:02:11;13.97;;;11.80;;
5549;SDS011;2798;42.716;23.256;2023-06-05T05:04:37;22.90;;;13.87;;
5549;SDS011;2798;42.716;23.256;2023-06-05T05:07:03;17.47;;;13.70;;
5549;SDS011;2798;42.716;23.256;2023-06-05T05:09:30;20.40;;;13.13;;
5549;SDS011;2798;42.716;23.256;2023-06-05T05:11:56;17.90;;;11.57;;
5549;SDS011;2798;42.716;23.256;2023-06-05T05:14:23;20.87;;;13.50;;
5549;SDS011;2798;42.716;23.256;2023-06-05T05:16:49;16.30;;;13.07;;
5549;SDS011;2798;42.716;23.256;2023-06-05T05:19:15;14.80;;;12.10;;
5549;SDS011;2798;42.716;23.256;2023-06-05T05:21:40;21.73;;;10.43;;
5549;SDS011;2798;42.716;23.256;2023-06-05T05:24:05;17.50;;;11.40;;
5549;SDS011;2798;42.716;23.256;2023-06-05T05:26:31;16.90;;;12.07;;
5549;SDS011;2798;42.716;23.256;2023-06-05T05:28:57;11.33;;;10.13;;
5549;SDS011;2798;42.716;23.256;2023-06-05T05:31:22;12.37;;;11.00;;
5549;SDS011;2798;42.716;23.256;2023-06-05T05:33:48;17.23;;;11.80;;
5549;SDS011;2798;42.716;23.256;2023-06-05T05:36:13;17.23;;;10.90;;
5549;SDS011;2798;42.716;23.256;2023-06-05T05:38:39;15.00;;;11.37;;
5549;SDS011;2798;42.716;23.256;2023-06-05T05:41:05;14.17;;;10.57;;
5549;SDS011;2798;42.716;23.256;2023-06-05T05:43:30;13.13;;;11.70;;
5549;SDS011;2798;42.716;23.256;2023-06-05T05:45:56;15.17;;;10.40;;
5549;SDS011;2798;42.716;23.256;2023-06-05T05:48:21;13.20;;;11.03;;
5549;SDS011;2798;42.716;23.256;2023-06-05T05:50:48;14.60;;;11.07;;
5549;SDS011;2798;42.716;23.256;2023-06-05T05:53:14;14.27;;;11.20;;
5549;SDS011;2798;42.716;23.256;2023-06-05T05:55:39;18.73;;;11.40;;
5549;SDS011;2798;42.716;23.256;2023-06-05T05:58:05;33.10;;;13.20;;
5549;SDS011;2798;42.716;23.256;2023-06-05T06:00:31;19.67;;;11.40;;
5549;SDS011;2798;42.716;23.256;2023-06-05T06:02:56;16.20;;;12.17;;
5549;SDS011;2798;42.716;23.256;2023-06-05T06:05:22;14.83;;;11.77;;
5549;SDS011;2798;42.716;23.256;2023-06-05T06:07:47;17.50;;;10.60;;
5549;SDS011;2798;42.716;23.256;2023-06-05T06:10:13;23.73;;;11.27;;
5549;SDS011;2798;42.716;23.256;2023-06-05T06:12:39;15.40;;;11.10;;
5549;SDS011;2798;42.716;23.256;2023-06-05T06:15:05;13.90;;;11.27;;
5549;SDS011;2798;42.716;23.256;2023-06-05T06:17:31;15.50;;;12.03;;
5549;SDS011;2798;42.716;23.256;2023-06-05T06:19:57;12.87;;;10.10;;
5549;SDS011;2798;42.716;23.256;2023-06-05T06:22:22;14.63;;;10.00;;
5549;SDS011;2798;42.716;23.256;2023-06-05T06:24:48;14.60;;;11.00;;
5549;SDS011;2798;42.716;23.256;2023-06-05T06:27:15;15.23;;;10.13;;
5549;SDS011;2798;42.716;23.256;2023-06-05T06:29:51;18.20;;;11.00;;
5549;SDS011;2798;42.716;23.256;2023-06-05T06:32:20;19.57;;;10.30;;
5549;SDS011;2798;42.716;23.256;2023-06-05T06:34:47;14.37;;;10.03;;
5549;SDS011;2798;42.716;23.256;2023-06-05T06:37:13;11.80;;;8.93;;
5549;SDS011;2798;42.716;23.256;2023-06-05T06:39:42;18.07;;;9.60;;
5549;SDS011;2798;42.716;23.256;2023-06-05T06:42:09;19.73;;;10.30;;
5549;SDS011;2798;42.716;23.256;2023-06-05T06:44:35;17.37;;;9.50;;
5549;SDS011;2798;42.716;23.256;2023-06-05T06:47:01;18.47;;;9.30;;
5549;SDS011;2798;42.716;23.256;2023-06-05T06:49:27;13.30;;;9.07;;
5549;SDS011;2798;42.716;23.256;2023-06-05T06:51:52;13.30;;;9.70;;
5549;SDS011;2798;42.716;23.256;2023-06-05T06:54:18;10.50;;;8.87;;
5549;SDS011;2798;42.716;23.256;2023-06-05T06:56:44;10.20;;;8.60;;
5549;SDS011;2798;42.716;23.256;2023-06-05T06:59:13;12.07;;;9.77;;
5549;SDS011;2798;42.716;23.256;2023-06-05T07:01:42;13.70;;;9.03;;
5549;SDS011;2798;42.716;23.256;2023-06-05T07:04:11;10.07;;;8.70;;
5549;SDS011;2798;42.716;23.256;2023-06-05T07:06:37;12.40;;;9.73;;
5549;SDS011;2798;42.716;23.256;2023-06-05T07:09:03;14.03;;;9.13;;
5549;SDS011;2798;42.716;23.256;2023-06-05T07:11:28;12.70;;;10.03;;
5549;SDS011;2798;42.716;23.256;2023-06-05T07:13:54;12.63;;;9.80;;
5549;SDS011;2798;42.716;23.256;2023-06-05T07:16:20;16.47;;;10.77;;
5549;SDS011;2798;42.716;23.256;2023-06-05T07:18:45;18.80;;;9.73;;
5549;SDS011;2798;42.716;23.256;2023-06-05T07:21:11;14.67;;;10.00;;
5549;SDS011;2798;42.716;23.256;2023-06-05T07:23:37;15.60;;;11.87;;
5549;SDS011;2798;42.716;23.256;2023-06-05T07:26:04;18.90;;;12.33;;
5549;SDS011;2798;42.716;23.256;2023-06-05T07:28:29;15.57;;;10.40;;
5549;SDS011;2798;42.716;23.256;2023-06-05T07:30:55;15.83;;;10.00;;
5549;SDS011;2798;42.716;23.256;2023-06-05T07:33:21;14.00;;;11.17;;
5549;SDS011;2798;42.716;23.256;2023-06-05T07:35:46;15.87;;;11.67;;
5549;SDS011;2798;42.716;23.256;2023-06-05T07:38:13;12.97;;;10.67;;
5549;SDS011;2798;42.716;23.256;2023-06-05T07:40:39;18.13;;;11.20;;
5549;SDS011;2798;42.716;23.256;2023-06-05T07:43:04;16.13;;;11.23;;
5549;SDS011;2798;42.716;23.256;2023-06-05T07:45:31;15.53;;;11.80;;
5549;SDS011;2798;42.716;23.256;2023-06-05T07:47:56;13.03;;;10.50;;
5549;SDS011;2798;42.716;23.256;2023-06-05T07:50:22;16.30;;;11.90;;
5549;SDS011;2798;42.716;23.256;2023-06-05T07:52:47;12.97;;;10.23;;
5549;SDS011;2798;42.716;23.256;2023-06-05T07:55:13;15.00;;;11.63;;
5549;SDS011;2798;42.716;23.256;2023-06-05T07:57:38;13.37;;;11.07;;
5549;SDS011;2798;42.716;23.256;2023-06-05T08:00:04;18.50;;;12.83;;
5549;SDS011;2798;42.716;23.256;2023-06-05T08:02:35;16.73;;;11.00;;
5549;SDS011;2798;42.716;23.256;2023-06-05T08:05:02;18.00;;;12.27;;
5549;SDS011;2798;42.716;23.256;2023-06-05T08:07:28;17.07;;;11.07;;
5549;SDS011;2798;42.716;23.256;2023-06-05T08:09:53;15.60;;;11.47;;
5549;SDS011;2798;42.716;23.256;2023-06-05T08:12:18;12.90;;;10.87;;
5549;SDS011;2798;42.716;23.256;2023-06-05T08:14:44;15.30;;;11.10;;
5549;SDS011;2798;42.716;23.256;2023-06-05T08:17:10;16.27;;;11.47;;
5549;SDS011;2798;42.716;23.256;2023-06-05T08:19:36;16.40;;;12.23;;
5549;SDS011;2798;42.716;23.256;2023-06-05T08:22:01;23.13;;;11.30;;
5549;SDS011;2798;42.716;23.256;2023-06-05T08:24:27;15.87;;;10.87;;
5549;SDS011;2798;42.716;23.256;2023-06-05T08:26:54;14.30;;;10.87;;
5549;SDS011;2798;42.716;23.256;2023-06-05T08:29:19;14.67;;;11.00;;
5549;SDS011;2798;42.716;23.256;2023-06-05T08:31:45;15.67;;;11.20;;
5549;SDS011;2798;42.716;23.256;2023-06-05T08:34:10;23.70;;;11.00;;
5549;SDS011;2798;42.716;23.256;2023-06-05T08:36:36;16.80;;;11.80;;
5549;SDS011;2798;42.716;23.256;2023-06-05T08:39:01;13.17;;;10.60;;
5549;SDS011;2798;42.716;23.256;2023-06-05T08:41:29;15.37;;;11.20;;
5549;SDS011;2798;42.716;23.256;2023-06-05T08:43:58;13.73;;;11.00;;
5549;SDS011;2798;42.716;23.256;2023-06-05T08:46:23;15.33;;;11.77;;
5549;SDS011;2798;42.716;23.256;2023-06-05T08:48:53;12.63;;;10.23;;
5549;SDS011;2798;42.716;23.256;2023-06-05T08:51:21;12.70;;;10.70;;
5549;SDS011;2798;42.716;23.256;2023-06-05T08:53:51;12.77;;;10.10;;
5549;SDS011;2798;42.716;23.256;2023-06-05T08:56:20;12.03;;;10.53;;
5549;SDS011;2798;42.716;23.256;2023-06-05T08:58:46;14.33;;;11.17;;
5549;SDS011;2798;42.716;23.256;2023-06-05T09:01:11;12.83;;;10.50;;
5549;SDS011;2798;42.716;23.256;2023-06-05T09:03:37;13.33;;;10.20;;
5549;SDS011;2798;42.716;23.256;2023-06-05T09:06:02;16.13;;;11.20;;
5549;SDS011;2798;42.716;23.256;2023-06-05T09:08:30;11.70;;;9.97;;
5549;SDS011;2798;42.716;23.256;2023-06-05T09:13:45;13.73;;;9.57;;
5549;SDS011;2798;42.716;23.256;2023-06-05T09:16:11;14.57;;;10.80;;
5549;SDS011;2798;42.716;23.256;2023-06-05T09:18:38;13.27;;;10.00;;
5549;SDS011;2798;42.716;23.256;2023-06-05T09:21:17;15.93;;;9.50;;
5549;SDS011;2798;42.716;23.256;2023-06-05T09:23:42;15.37;;;11.77;;
5549;SDS011;2798;42.716;23.256;2023-06-05T09:26:08;14.10;;;10.80;;
5549;SDS011;2798;42.716;23.256;2023-06-05T09:28:35;12.70;;;10.90;;
5549;SDS011;2798;42.716;23.256;2023-06-05T09:31:01;14.50;;;9.93;;
5549;SDS011;2798;42.716;23.256;2023-06-05T09:33:28;12.60;;;9.03;;
5549;SDS011;2798;42.716;23.256;2023-06-05T09:38:28;13.20;;;9.87;;
5549;SDS011;2798;42.716;23.256;2023-06-05T09:41:01;14.70;;;10.63;;
5549;SDS011;2798;42.716;23.256;2023-06-05T09:43:33;12.60;;;9.60;;
5549;SDS011;2798;42.716;23.256;2023-06-05T09:46:06;14.67;;;10.27;;
5549;SDS011;2798;42.716;23.256;2023-06-05T09:48:31;10.93;;;9.60;;
5549;SDS011;2798;42.716;23.256;2023-06-05T09:51:19;14.73;;;10.20;;
5549;SDS011;2798;42.716;23.256;2023-06-05T09:53:45;12.10;;;10.33;;
5549;SDS011;2798;42.716;23.256;2023-06-05T09:56:13;12.10;;;9.37;;
5549;SDS011;2798;42.716;23.256;2023-06-05T09:58:49;10.90;;;8.93;;
5549;SDS011;2798;42.716;23.256;2023-06-05T10:01:17;11.63;;;9.27;;
5549;SDS011;2798;42.716;23.256;2023-06-05T10:03:48;11.70;;;8.60;;
5549;SDS011;2798;42.716;23.256;2023-06-05T10:06:17;14.17;;;9.50;;
5549;SDS011;2798;42.716;23.256;2023-06-05T10:08:49;12.40;;;8.30;;
5549;SDS011;2798;42.716;23.256;2023-06-05T10:11:18;11.30;;;8.70;;
5549;SDS011;2798;42.716;23.256;2023-06-05T10:13:46;10.70;;;7.97;;
5549;SDS011;2798;42.716;23.256;2023-06-05T10:16:13;10.80;;;8.13;;
5549;SDS011;2798;42.716;23.256;2023-06-05T10:18:39;9.40;;;7.73;;
5549;SDS011;2798;42.716;23.256;2023-06-05T10:21:05;9.83;;;7.90;;
5549;SDS011;2798;42.716;23.256;2023-06-05T10:23:31;10.90;;;6.63;;
5549;SDS011;2798;42.716;23.256;2023-06-05T10:25:58;9.37;;;7.60;;
5549;SDS011;2798;42.716;23.256;2023-06-05T10:28:56;15.20;;;7.37;;
5549;SDS011;2798;42.716;23.256;2023-06-05T10:31:40;9.90;;;6.90;;
5549;SDS011;2798;42.716;23.256;2023-06-05T10:40:42;9.70;;;7.30;;
5549;SDS011;2798;42.716;23.256;2023-06-05T10:43:25;10.67;;;7.40;;
5549;SDS011;2798;42.716;23.256;2023-06-05T10:46:02;8.03;;;6.80;;
5549;SDS011;2798;42.716;23.256;2023-06-05T10:51:42;8.83;;;7.10;;
5549;SDS011;2798;42.716;23.256;2023-06-05T10:54:10;9.90;;;7.20;;
5549;SDS011;2798;42.716;23.256;2023-06-05T10:59:16;9.03;;;7.27;;
5549;SDS011;2798;42.716;23.256;2023-06-05T11:01:45;10.00;;;7.30;;
5549;SDS011;2798;42.716;23.256;2023-06-05T11:07:24;9.47;;;6.83;;
5549;SDS011;2798;42.716;23.256;2023-06-05T11:17:36;12.33;;;6.50;;
5549;SDS011;2798;42.716;23.256;2023-06-05T11:20:06;7.67;;;6.37;;
5549;SDS011;2798;42.716;23.256;2023-06-05T11:27:46;7.07;;;6.20;;
5549;SDS011;2798;42.716;23.256;2023-06-05T11:30:27;11.07;;;6.50;;
5549;SDS011;2798;42.716;23.256;2023-06-05T11:32:57;8.93;;;5.93;;
5549;SDS011;2798;42.716;23.256;2023-06-05T11:35:33;7.57;;;5.57;;
5549;SDS011;2798;42.716;23.256;2023-06-05T11:40:35;6.10;;;5.50;;
5549;SDS011;2798;42.716;23.256;2023-06-05T11:43:04;5.90;;;5.30;;
5549;SDS011;2798;42.716;23.256;2023-06-05T11:45:31;7.80;;;5.47;;
5549;SDS011;2798;42.716;23.256;2023-06-05T11:50:34;8.83;;;5.60;;
5549;SDS011;2798;42.716;23.256;2023-06-05T11:53:09;6.33;;;4.90;;
5549;SDS011;2798;42.716;23.256;2023-06-05T11:55:36;5.93;;;5.23;;
5549;SDS011;2798;42.716;23.256;2023-06-05T11:58:22;5.90;;;5.20;;
5549;SDS011;2798;42.716;23.256;2023-06-05T12:00:48;7.73;;;5.93;;
5549;SDS011;2798;42.716;23.256;2023-06-05T12:03:20;6.27;;;5.30;;
5549;SDS011;2798;42.716;23.256;2023-06-05T12:05:49;8.90;;;5.90;;
5549;SDS011;2798;42.716;23.256;2023-06-05T12:08:21;7.90;;;6.10;;
5549;SDS011;2798;42.716;23.256;2023-06-05T12:10:50;5.13;;;4.63;;
5549;SDS011;2798;42.716;23.256;2023-06-05T12:13:17;6.07;;;5.47;;
5549;SDS011;2798;42.716;23.256;2023-06-05T12:15:42;6.00;;;4.93;;
5549;SDS011;2798;42.716;23.256;2023-06-05T12:18:08;7.80;;;5.60;;
5549;SDS011;2798;42.716;23.256;2023-06-05T12:20:39;5.07;;;4.47;;
5549;SDS011;2798;42.716;23.256;2023-06-05T12:23:05;6.53;;;4.40;;
5549;SDS011;2798;42.716;23.256;2023-06-05T12:25:31;5.77;;;5.17;;
5549;SDS011;2798;42.716;23.256;2023-06-05T12:27:57;6.17;;;4.60;;
5549;SDS011;2798;42.716;23.256;2023-06-05T12:30:22;8.47;;;4.97;;
5549;SDS011;2798;42.716;23.256;2023-06-05T12:32:47;5.97;;;5.10;;
5549;SDS011;2798;42.716;23.256;2023-06-05T12:35:20;4.80;;;4.30;;
5549;SDS011;2798;42.716;23.256;2023-06-05T12:37:47;5.20;;;4.67;;
5549;SDS011;2798;42.716;23.256;2023-06-05T12:40:14;7.30;;;4.10;;
5549;SDS011;2798;42.716;23.256;2023-06-05T12:42:45;5.93;;;4.87;;
5549;SDS011;2798;42.716;23.256;2023-06-05T12:45:12;11.00;;;5.03;;
5549;SDS011;2798;42.716;23.256;2023-06-05T12:47:38;8.13;;;4.90;;
5549;SDS011;2798;42.716;23.256;2023-06-05T12:50:05;5.97;;;4.50;;
5549;SDS011;2798;42.716;23.256;2023-06-05T12:52:36;6.17;;;4.60;;
5549;SDS011;2798;42.716;23.256;2023-06-05T12:55:01;9.43;;;4.63;;
5549;SDS011;2798;42.716;23.256;2023-06-05T12:57:28;5.50;;;4.27;;
5549;SDS011;2798;42.716;23.256;2023-06-05T12:59:53;6.67;;;5.10;;
5549;SDS011;2798;42.716;23.256;2023-06-05T13:02:20;8.17;;;5.17;;
5549;SDS011;2798;42.716;23.256;2023-06-05T13:04:46;5.43;;;4.73;;
5549;SDS011;2798;42.716;23.256;2023-06-05T13:07:11;6.60;;;4.83;;
5549;SDS011;2798;42.716;23.256;2023-06-05T13:09:37;5.00;;;4.33;;
5549;SDS011;2798;42.716;23.256;2023-06-05T13:12:03;8.90;;;4.87;;
5549;SDS011;2798;42.716;23.256;2023-06-05T13:14:29;7.60;;;4.43;;
5549;SDS011;2798;42.716;23.256;2023-06-05T13:16:56;5.10;;;4.10;;
5549;SDS011;2798;42.716;23.256;2023-06-05T13:19:22;4.33;;;3.93;;
5549;SDS011;2798;42.716;23.256;2023-06-05T13:21:47;4.60;;;4.10;;
5549;SDS011;2798;42.716;23.256;2023-06-05T13:24:13;4.50;;;4.10;;
5549;SDS011;2798;42.716;23.256;2023-06-05T13:26:38;4.53;;;3.73;;
5549;SDS011;2798;42.716;23.256;2023-06-05T13:29:04;4.53;;;4.10;;
5549;SDS011;2798;42.716;23.256;2023-06-05T13:31:29;4.50;;;3.93;;
5549;SDS011;2798;42.716;23.256;2023-06-05T13:33:55;3.83;;;3.40;;
5549;SDS011;2798;42.716;23.256;2023-06-05T13:36:21;5.10;;;4.00;;
5549;SDS011;2798;42.716;23.256;2023-06-05T13:38:48;4.20;;;3.80;;
5549;SDS011;2798;42.716;23.256;2023-06-05T13:41:14;5.17;;;3.80;;
5549;SDS011;2798;42.716;23.256;2023-06-05T13:43:39;4.17;;;3.70;;
5549;SDS011;2798;42.716;23.256;2023-06-05T13:46:04;5.17;;;4.03;;
5549;SDS011;2798;42.716;23.256;2023-06-05T13:48:30;5.03;;;3.63;;
5549;SDS011;2798;42.716;23.256;2023-06-05T13:50:58;4.30;;;3.50;;
5549;SDS011;2798;42.716;23.256;2023-06-05T13:53:24;5.00;;;3.70;;
5549;SDS011;2798;42.716;23.256;2023-06-05T13:55:49;4.00;;;3.70;;
5549;SDS011;2798;42.716;23.256;2023-06-05T13:58:15;4.70;;;3.67;;
5549;SDS011;2798;42.716;23.256;2023-06-05T14:00:41;6.30;;;4.00;;
5549;SDS011;2798;42.716;23.256;2023-06-05T14:03:08;4.43;;;3.80;;
5549;SDS011;2798;42.716;23.256;2023-06-05T14:05:34;6.40;;;4.37;;
5549;SDS011;2798;42.716;23.256;2023-06-05T14:07:59;5.43;;;3.60;;
5549;SDS011;2798;42.716;23.256;2023-06-05T14:10:25;6.90;;;3.60;;
5549;SDS011;2798;42.716;23.256;2023-06-05T14:12:51;4.03;;;3.60;;
5549;SDS011;2798;42.716;23.256;2023-06-05T14:15:18;4.30;;;3.43;;
5549;SDS011;2798;42.716;23.256;2023-06-05T14:17:44;4.23;;;3.43;;
5549;SDS011;2798;42.716;23.256;2023-06-05T14:20:11;3.63;;;3.33;;
5549;SDS011;2798;42.716;23.256;2023-06-05T14:22:36;4.50;;;3.57;;
5549;SDS011;2798;42.716;23.256;2023-06-05T14:25:02;4.40;;;3.30;;
5549;SDS011;2798;42.716;23.256;2023-06-05T14:27:28;4.30;;;3.90;;
5549;SDS011;2798;42.716;23.256;2023-06-05T14:29:53;3.63;;;3.20;;
5549;SDS011;2798;42.716;23.256;2023-06-05T14:32:19;5.10;;;4.03;;
5549;SDS011;2798;42.716;23.256;2023-06-05T14:34:45;4.10;;;3.57;;
5549;SDS011;2798;42.716;23.256;2023-06-05T14:37:10;4.57;;;3.73;;
5549;SDS011;2798;42.716;23.256;2023-06-05T14:39:36;3.83;;;3.43;;
5549;SDS011;2798;42.716;23.256;2023-06-05T14:42:02;5.60;;;3.77;;
5549;SDS011;2798;42.716;23.256;2023-06-05T14:44:27;4.07;;;3.70;;
5549;SDS011;2798;42.716;23.256;2023-06-05T14:46:53;4.73;;;3.50;;
5549;SDS011;2798;42.716;23.256;2023-06-05T14:49:21;4.17;;;3.77;;
5549;SDS011;2798;42.716;23.256;2023-06-05T14:51:47;4.00;;;3.00;;
5549;SDS011;2798;42.716;23.256;2023-06-05T14:54:12;3.93;;;3.53;;
5549;SDS011;2798;42.716;23.256;2023-06-05T14:56:38;7.83;;;3.80;;
5549;SDS011;2798;42.716;23.256;2023-06-05T14:59:03;4.50;;;3.70;;
5549;SDS011;2798;42.716;23.256;2023-06-05T15:01:29;6.73;;;3.30;;
5549;SDS011;2798;42.716;23.256;2023-06-05T15:03:54;10.27;;;4.33;;
5549;SDS011;2798;42.716;23.256;2023-06-05T15:06:20;5.57;;;4.10;;
5549;SDS011;2798;42.716;23.256;2023-06-05T15:08:45;5.03;;;4.20;;
5549;SDS011;2798;42.716;23.256;2023-06-05T15:11:10;6.10;;;5.30;;
5549;SDS011;2798;42.716;23.256;2023-06-05T15:13:36;7.00;;;5.20;;
5549;SDS011;2798;42.716;23.256;2023-06-05T15:16:01;5.67;;;4.20;;
5549;SDS011;2798;42.716;23.256;2023-06-05T15:18:27;4.93;;;3.80;;
5549;SDS011;2798;42.716;23.256;2023-06-05T15:20:52;4.23;;;3.83;;
5549;SDS011;2798;42.716;23.256;2023-06-05T15:23:18;5.50;;;4.00;;
5549;SDS011;2798;42.716;23.256;2023-06-05T15:25:43;9.00;;;4.30;;
5549;SDS011;2798;42.716;23.256;2023-06-05T15:28:09;10.30;;;4.50;;